Lydia, Louisiana
Current Conditions -  °F | °C
As of 9:53 AM on Thursday 29 Jan 2015 (Local Time) from KARA Reporting Station
Overcast Overcast  
Wind Chill: 62°   Ceiling: 600
Heat Index: 62°   Visibility: 10mi
Dew Point: 57°   Wind: 6mph
Humidity: 84%   Direction: 190°S
Pressure: 30.27"   Gusts: NA
Location:  29.92°N, 91.78°W
Report Text: KARA 291553Z 19005KT 10SM OVC006 17/14 A3027 RMK AO2 SLP251 T01670139
Loading
Personal Weather Stations






























Interactive Weather Map New forecast layout! Learn more

10-Day Weather Forecast

Advertisements
Track Severe Weather on mobile